Time;durP1;ratioP1;P1;durP2;ratioP2;P2;SDS_P1;SDS_P2;PMS_P1;PMS_P2;Temp;Humidity;BMP_temperature;BMP_pressure;BME280_temperature;BME280_humidity;BME280_pressure;Samples;Min_cycle;Max_cycle;Signal;HPM_P1;HPM_P2
2021/03/04 00:01:19;;;;;;;60.28;26.95;;;;;;;-143.98;100.00;68091.63;6341132;22;20033;-82
2021/03/04 00:03:45;;;;;;;53.45;24.65;;;;;;;-143.98;100.00;68091.63;6341830;22;20043;-82
2021/03/04 00:06:12;;;;;;;57.38;26.35;;;;;;;-143.98;100.00;68091.63;6340975;22;20050;-82
2021/03/04 00:08:38;;;;;;;62.97;26.85;;;;;;;-143.98;100.00;68091.63;6340532;22;20118;-82
2021/03/04 00:11:05;;;;;;;58.33;25.95;;;;;;;-143.98;100.00;68091.63;6313582;22;20034;-82
2021/03/04 00:13:31;;;;;;;62.42;26.77;;;;;;;-143.98;100.00;68091.63;6340220;22;20026;-82
2021/03/04 00:15:57;;;;;;;56.40;27.02;;;;;;;-143.98;100.00;68091.63;6340302;22;20027;-82
2021/03/04 00:18:24;;;;;;;59.42;26.38;;;;;;;-143.98;100.00;68091.63;6341124;22;20049;-82
2021/03/04 00:20:52;;;;;;;56.97;25.85;;;;;;;-143.98;100.00;68091.63;6340450;22;20154;-82
2021/03/04 00:23:21;;;;;;;54.10;25.80;;;;;;;-143.98;100.00;68091.63;6345665;22;20095;-82
2021/03/04 00:25:51;;;;;;;49.10;24.33;;;;;;;-143.98;100.00;68091.63;6319067;22;20124;-82
2021/03/04 00:28:17;;;;;;;58.60;26.52;;;;;;;-143.98;100.00;68091.63;6321335;22;20030;-82
2021/03/04 00:30:43;;;;;;;60.67;27.52;;;;;;;-143.98;100.00;68091.63;6320703;22;20027;-82
2021/03/04 00:33:11;;;;;;;61.38;28.45;;;;;;;-143.98;100.00;68091.63;6349880;22;20022;-82
2021/03/04 00:35:38;;;;;;;67.20;29.63;;;;;;;-143.98;100.00;68091.63;6344137;22;20073;-82
2021/03/04 00:38:05;;;;;;;63.35;28.02;;;;;;;-143.98;100.00;68091.63;6395666;22;20513;-82
2021/03/04 00:40:33;;;;;;;62.30;28.55;;;;;;;-143.98;100.00;68091.63;6351886;22;20034;-82
2021/03/04 00:42:59;;;;;;;64.60;28.30;;;;;;;-143.98;100.00;68091.63;6322472;22;20031;-82
2021/03/04 00:45:27;;;;;;;63.78;30.48;;;;;;;-143.98;100.00;68091.63;6350889;22;20026;-82
2021/03/04 00:48:12;;;;;;;75.18;31.45;;;;;;;-143.98;100.00;68091.63;6373411;22;20066;-82
2021/03/04 00:50:39;;;;;;;61.47;27.58;;;;;;;-143.98;100.00;68091.63;6356446;22;20110;-82
2021/03/04 00:53:08;;;;;;;71.18;29.08;;;;;;;-143.98;100.00;68091.63;6321816;22;20026;-82
2021/03/04 00:55:34;;;;;;;65.90;30.35;;;;;;;-143.98;100.00;68091.63;6321301;22;20190;-82
2021/03/04 00:58:01;;;;;;;66.28;27.55;;;;;;;-143.98;100.00;68091.63;6320914;22;20377;-82
2021/03/04 01:00:30;;;;;;;66.35;30.08;;;;;;;-143.98;100.00;68091.63;6347171;22;20057;-82
2021/03/04 01:02:57;;;;;;;72.28;29.85;;;;;;;-143.98;100.00;68091.63;6320712;22;20027;-82
2021/03/04 01:05:23;;;;;;;72.15;28.73;;;;;;;-143.98;100.00;68091.63;6320696;22;20030;-82
2021/03/04 01:07:53;;;;;;;59.88;27.10;;;;;;;-143.98;100.00;68091.63;6346363;22;20106;-84
2021/03/04 01:10:43;;;;;;;60.72;26.58;;;;;;;-143.98;100.00;68091.63;6322203;22;20022;-84
2021/03/04 01:13:10;;;;;;;58.03;26.10;;;;;;;-143.98;100.00;68091.63;6323718;22;20029;-84
2021/03/04 01:15:39;;;;;;;59.53;27.13;;;;;;;-143.98;100.00;68091.63;6358183;22;20044;-84
2021/03/04 01:18:24;;;;;;;60.03;26.58;;;;;;;-143.98;100.00;68091.63;6366256;22;20027;-85
2021/03/04 01:20:50;;;;;;;60.38;26.10;;;;;;;-143.98;100.00;68091.63;6361446;22;20071;-84
2021/03/04 01:23:19;;;;;;;63.40;26.58;;;;;;;-143.98;100.00;68091.63;6330618;22;20045;-84
2021/03/04 01:25:52;;;;;;;58.65;24.63;;;;;;;-143.98;100.00;68091.63;6350923;22;20030;-83
2021/03/04 01:28:18;;;;;;;64.72;26.58;;;;;;;-143.98;100.00;68091.63;6353104;22;20022;-83
2021/03/04 01:30:44;;;;;;;58.25;25.92;;;;;;;-143.98;100.00;68091.63;6331996;22;20073;-84
2021/03/04 01:33:17;;;;;;;55.60;25.75;;;;;;;-143.98;100.00;68091.63;6323369;22;20030;-84
2021/03/04 01:35:48;;;;;;;59.08;24.38;;;;;;;-143.98;100.00;68091.63;6345244;22;20417;-83
2021/03/04 01:38:18;;;;;;;59.40;24.45;;;;;;;-143.98;100.00;68091.63;6319488;22;20069;-84
2021/03/04 01:40:45;;;;;;;55.47;25.33;;;;;;;-143.98;100.00;68091.63;6346258;22;20101;-84
2021/03/04 01:43:12;;;;;;;55.85;24.38;;;;;;;-143.98;100.00;68091.63;6373791;22;20027;-84
2021/03/04 01:45:38;;;;;;;52.45;23.63;;;;;;;-143.98;100.00;68091.63;6347943;22;20033;-85
2021/03/04 01:48:09;;;;;;;54.53;22.50;;;;;;;-143.98;100.00;68091.63;6347025;22;20075;-84
2021/03/04 01:50:39;;;;;;;53.30;24.15;;;;;;;-143.98;100.00;68091.63;6346951;22;20026;-84
2021/03/04 01:53:05;;;;;;;58.92;24.85;;;;;;;-143.98;100.00;68091.63;6347608;22;20312;-84
2021/03/04 01:55:31;;;;;;;53.38;23.65;;;;;;;-143.98;100.00;68091.63;6321710;22;20038;-84
2021/03/04 01:58:01;;;;;;;49.45;22.60;;;;;;;-143.98;100.00;68091.63;6321688;22;20284;-83
2021/03/04 02:00:28;;;;;;;57.47;21.45;;;;;;;-143.98;100.00;68091.63;6323113;22;20319;-83
2021/03/04 02:02:58;;;;;;;54.30;21.83;;;;;;;-143.98;100.00;68091.63;6348390;22;20052;-83
2021/03/04 02:05:27;;;;;;;48.75;21.63;;;;;;;-143.98;100.00;68091.63;6356796;22;20029;-84
2021/03/04 02:08:06;;;;;;;53.22;21.80;;;;;;;-143.98;100.00;68091.63;6333201;22;20033;-84
2021/03/04 02:10:32;;;;;;;53.53;22.48;;;;;;;-143.98;100.00;68091.63;6357976;22;20441;-84
2021/03/04 02:13:17;;;;;;;52.70;20.95;;;;;;;-143.98;100.00;68091.63;6350896;22;20415;-84
2021/03/04 02:16:04;;;;;;;51.35;21.17;;;;;;;-143.98;100.00;68091.63;6375761;22;20026;-84
2021/03/04 02:18:36;;;;;;;53.50;21.55;;;;;;;-143.98;100.00;68091.63;6323481;22;20575;-84
2021/03/04 02:21:21;;;;;;;53.88;22.33;;;;;;;-143.98;100.00;68091.63;6321092;22;20280;-82
2021/03/04 02:24:10;;;;;;;55.67;20.98;;;;;;;-143.98;100.00;68091.63;6316093;22;20046;-82
2021/03/04 02:26:53;;;;;;;51.92;22.35;;;;;;;-143.98;100.00;68091.63;6343121;22;20027;-82
2021/03/04 02:29:21;;;;;;;53.47;22.17;;;;;;;-143.98;100.00;68091.63;6342943;22;20054;-84
2021/03/04 02:31:53;;;;;;;53.97;19.10;;;;;;;-143.98;100.00;68091.63;6341969;22;20058;-82
2021/03/04 02:34:22;;;;;;;63.33;21.92;;;;;;;-143.98;100.00;68091.63;6313918;22;20027;-82
2021/03/04 02:36:49;;;;;;;51.60;20.52;;;;;;;-143.98;100.00;68091.63;6315583;22;20058;-82
2021/03/04 02:39:17;;;;;;;51.25;20.73;;;;;;;-143.98;100.00;68091.63;6315891;22;20319;-82
2021/03/04 02:41:44;;;;;;;55.20;22.00;;;;;;;-143.98;100.00;68091.63;6341739;22;20088;-82
2021/03/04 02:44:19;;;;;;;66.50;26.30;;;;;;;-143.98;100.00;68091.63;6314164;22;20290;-82
2021/03/04 02:46:46;;;;;;;71.35;24.85;;;;;;;-143.98;100.00;68091.63;6339200;22;20026;-82
2021/03/04 02:49:32;;;;;;;69.95;24.38;;;;;;;-143.98;100.00;68091.63;6319248;22;20076;-82
2021/03/04 02:52:03;;;;;;;65.38;23.45;;;;;;;-143.98;100.00;68091.63;6340617;22;20019;-82
2021/03/04 02:54:30;;;;;;;61.30;23.27;;;;;;;-143.98;100.00;68091.63;6341479;22;20038;-82
2021/03/04 02:56:59;;;;;;;56.45;21.45;;;;;;;-143.98;100.00;68091.63;6342040;22;20103;-82
2021/03/04 02:59:25;;;;;;;53.75;19.92;;;;;;;-143.98;100.00;68091.63;6316398;22;20386;-82
2021/03/04 03:01:53;;;;;;;55.03;20.10;;;;;;;-143.98;100.00;68091.63;6342344;22;20030;-82
2021/03/04 03:04:22;;;;;;;55.88;20.75;;;;;;;-143.98;100.00;68091.63;6317432;22;20027;-82
2021/03/04 03:06:49;;;;;;;58.22;21.67;;;;;;;-143.98;100.00;68091.63;6316230;22;20088;-82
2021/03/04 03:09:16;;;;;;;58.28;21.08;;;;;;;-143.98;100.00;68091.63;6342626;22;20118;-82
2021/03/04 03:11:44;;;;;;;65.15;24.58;;;;;;;-143.98;100.00;68091.63;6341801;22;20266;-82
2021/03/04 03:14:11;;;;;;;73.65;26.00;;;;;;;-143.98;100.00;68091.63;6340863;22;20027;-82
2021/03/04 03:16:43;;;;;;;56.13;21.33;;;;;;;-143.98;100.00;68091.63;6315329;22;20023;-82
2021/03/04 03:19:26;;;;;;;51.05;20.38;;;;;;;-143.98;100.00;68091.63;6316272;22;20033;-82
2021/03/04 03:21:53;;;;;;;47.58;18.55;;;;;;;-143.98;100.00;68091.63;6343916;22;20018;-82
2021/03/04 03:24:19;;;;;;;43.42;17.70;;;;;;;-143.98;100.00;68091.63;6318840;22;20191;-82
2021/03/04 03:26:46;;;;;;;43.97;18.58;;;;;;;-143.98;100.00;68091.63;6344678;22;20019;-82
2021/03/04 03:29:13;;;;;;;49.67;19.10;;;;;;;-143.98;100.00;68091.63;6343069;22;20066;-84
2021/03/04 03:31:44;;;;;;;50.45;19.63;;;;;;;-143.98;100.00;68091.63;6344230;22;20354;-82
2021/03/04 03:34:11;;;;;;;44.38;19.10;;;;;;;-143.98;100.00;68091.63;6344131;22;20440;-82
2021/03/04 03:36:41;;;;;;;53.00;20.25;;;;;;;-143.98;100.00;68091.63;6317992;22;20022;-83
2021/03/04 03:39:08;;;;;;;55.35;21.05;;;;;;;-143.98;100.00;68091.63;6343485;22;20077;-82
2021/03/04 03:41:38;;;;;;;75.20;27.52;;;;;;;-143.98;100.00;68091.63;6342392;22;20436;-81
2021/03/04 03:44:10;;;;;;;84.75;30.10;;;;;;;-143.98;100.00;68091.63;6341983;22;20023;-83
2021/03/04 03:46:38;;;;;;;74.47;26.63;;;;;;;-143.98;100.00;68091.63;6345198;22;20066;-84
2021/03/04 03:49:06;;;;;;;67.97;25.92;;;;;;;-143.98;100.00;68091.63;6317203;22;20023;-84
2021/03/04 03:51:33;;;;;;;58.60;23.98;;;;;;;-143.98;100.00;68091.63;6344651;22;20023;-83
2021/03/04 03:54:02;;;;;;;65.22;23.30;;;;;;;-143.98;100.00;68091.63;6345753;22;20121;-84
2021/03/04 03:56:55;;;;;;;56.38;22.27;;;;;;;-143.98;100.00;68091.63;6355597;22;20030;-84
2021/03/04 03:59:22;;;;;;;63.75;22.73;;;;;;;-143.98;100.00;68091.63;6339644;22;20036;-82
2021/03/04 04:01:48;;;;;;;52.70;22.10;;;;;;;-143.98;100.00;68091.63;6354819;22;20092;-82
2021/03/04 04:04:15;;;;;;;48.80;21.63;;;;;;;-143.98;100.00;68091.63;6346235;22;20041;-82
2021/03/04 04:06:44;;;;;;;50.90;20.90;;;;;;;-143.98;100.00;68091.63;6321095;22;20027;-82
2021/03/04 04:12:52;;;;;;;66.45;24.35;;;;;;;-143.98;100.00;68091.63;6357044;22;20025;-82
2021/03/04 04:15:20;;;;;;;59.80;24.33;;;;;;;-143.98;100.00;68091.63;6343780;22;20030;-82
2021/03/04 04:17:47;;;;;;;49.50;22.05;;;;;;;-143.98;100.00;68091.63;6316724;22;20030;-82
2021/03/04 04:20:18;;;;;;;51.17;20.88;;;;;;;-143.98;100.00;68091.63;6343286;22;20079;-81
2021/03/04 04:22:48;;;;;;;44.53;19.85;;;;;;;-143.98;100.00;68091.63;6317081;22;20087;-81
2021/03/04 04:25:20;;;;;;;44.83;20.08;;;;;;;-143.98;100.00;68091.63;6341952;22;20027;-81
2021/03/04 04:27:48;;;;;;;42.00;19.25;;;;;;;-143.98;100.00;68091.63;6357310;22;20014;-81
2021/03/04 04:30:15;;;;;;;37.85;17.85;;;;;;;-143.98;100.00;68091.63;6332019;22;20042;-81
2021/03/04 04:32:44;;;;;;;44.20;18.27;;;;;;;-143.98;100.00;68091.63;6319484;22;20034;-83
2021/03/04 04:35:15;;;;;;;43.60;19.05;;;;;;;-143.98;100.00;68091.63;6342816;22;20031;-81
2021/03/04 04:37:42;;;;;;;41.65;18.55;;;;;;;-143.98;100.00;68091.63;6317365;22;20031;-84
2021/03/04 04:40:09;;;;;;;45.88;18.83;;;;;;;-143.98;100.00;68091.63;6315501;22;20098;-81
2021/03/04 04:42:36;;;;;;;46.83;19.70;;;;;;;-143.98;100.00;68091.63;6316440;22;20691;-81
2021/03/04 04:45:12;;;;;;;47.95;19.75;;;;;;;-143.98;100.00;68091.63;6317489;22;20023;-82
2021/03/04 04:47:38;;;;;;;41.00;19.67;;;;;;;-143.98;100.00;68091.63;6316187;22;20029;-82
2021/03/04 04:50:05;;;;;;;46.88;20.00;;;;;;;-143.98;100.00;68091.63;6340596;22;20026;-83
2021/03/04 04:52:41;;;;;;;42.15;18.77;;;;;;;-143.98;100.00;68091.63;6339102;22;20026;-82
2021/03/04 04:55:10;;;;;;;45.13;17.98;;;;;;;-143.98;100.00;68091.63;6341764;22;20027;-82
2021/03/04 04:57:36;;;;;;;46.20;20.40;;;;;;;-143.98;100.00;68091.63;6339671;22;20105;-81
2021/03/04 05:00:10;;;;;;;44.03;19.65;;;;;;;-143.98;100.00;68091.63;6338547;22;20022;-81
2021/03/04 05:02:42;;;;;;;38.22;18.33;;;;;;;-143.98;100.00;68091.63;6312845;22;20022;-81
2021/03/04 05:05:11;;;;;;;40.92;19.90;;;;;;;-143.98;100.00;68091.63;6337971;22;20022;-82
2021/03/04 05:07:38;;;;;;;38.53;18.35;;;;;;;-143.98;100.00;68091.63;6312699;22;20022;-82
2021/03/04 05:10:05;;;;;;;45.35;18.98;;;;;;;-143.98;100.00;68091.63;6337627;22;20019;-82
2021/03/04 05:12:32;;;;;;;36.13;17.30;;;;;;;-143.98;100.00;68091.63;6311145;22;20044;-82
2021/03/04 05:14:58;;;;;;;42.80;18.08;;;;;;;-143.98;100.00;68091.63;6312749;22;20037;-82
2021/03/04 05:17:25;;;;;;;35.30;18.17;;;;;;;-143.98;100.00;68091.63;6313195;22;20027;-82
2021/03/04 05:20:00;;;;;;;48.85;18.60;;;;;;;-143.98;100.00;68091.63;6339321;22;20027;-82
2021/03/04 05:22:27;;;;;;;50.55;19.75;;;;;;;-143.98;100.00;68091.63;6312182;22;20030;-82
2021/03/04 05:25:02;;;;;;;45.60;19.63;;;;;;;-143.98;100.00;68091.63;6312592;22;20030;-82
2021/03/04 05:27:31;;;;;;;43.83;18.88;;;;;;;-143.98;100.00;68091.63;6339189;22;20411;-82
2021/03/04 05:30:06;;;;;;;41.92;17.95;;;;;;;-143.98;100.00;68091.63;6339566;22;20022;-82
2021/03/04 05:32:32;;;;;;;45.20;19.13;;;;;;;-143.98;100.00;68091.63;6303034;22;20039;-82
2021/03/04 05:35:03;;;;;;;42.92;19.45;;;;;;;-143.98;100.00;68091.63;6338060;22;20624;-84
2021/03/04 05:37:31;;;;;;;41.60;17.50;;;;;;;-143.98;100.00;68091.63;6335714;22;20027;-82
2021/03/04 05:40:00;;;;;;;46.92;19.80;;;;;;;-143.98;100.00;68091.63;6337201;22;20034;-82
2021/03/04 05:42:30;;;;;;;42.58;18.55;;;;;;;-143.98;100.00;68091.63;6312118;22;20027;-82
2021/03/04 05:44:57;;;;;;;44.28;18.63;;;;;;;-143.98;100.00;68091.63;6311228;22;20041;-82
2021/03/04 05:47:25;;;;;;;41.83;18.60;;;;;;;-143.98;100.00;68091.63;6337196;22;20106;-82
2021/03/04 05:50:04;;;;;;;105.60;21.38;;;;;;;-143.98;100.00;68091.63;6336778;22;20519;-82
2021/03/04 05:52:38;;;;;;;132.10;21.60;;;;;;;-143.98;100.00;68091.63;6309989;22;20139;-82
2021/03/04 05:55:27;;;;;;;39.58;17.80;;;;;;;-143.98;100.00;68091.63;6337840;22;20035;-81
2021/03/04 05:57:57;;;;;;;42.28;16.15;;;;;;;-143.98;100.00;68091.63;6335293;22;20440;-82
2021/03/04 06:00:26;;;;;;;32.80;16.15;;;;;;;-143.98;100.00;68091.63;6309596;22;20026;-82
2021/03/04 06:02:55;;;;;;;31.23;14.77;;;;;;;-143.98;100.00;68091.63;6309543;22;20419;-81
2021/03/04 06:05:26;;;;;;;29.20;13.68;;;;;;;-143.98;100.00;68091.63;6335357;22;20026;-82
2021/03/04 06:08:07;;;;;;;44.75;12.85;;;;;;;-143.98;100.00;68091.63;6334800;22;20412;-81
2021/03/04 06:10:34;;;;;;;28.55;13.98;;;;;;;-143.98;100.00;68091.63;6336400;22;20408;-81
2021/03/04 06:13:00;;;;;;;26.50;12.68;;;;;;;-143.98;100.00;68091.63;6311549;22;20022;-82
2021/03/04 06:15:33;;;;;;;45.72;12.63;;;;;;;-143.98;100.00;68091.63;6334404;22;20070;-82
2021/03/04 06:17:59;;;;;;;28.33;12.10;;;;;;;-143.98;100.00;68091.63;6306827;22;20037;-81
2021/03/04 06:20:39;;;;;;;27.90;11.77;;;;;;;-143.98;100.00;68091.63;6305928;22;20033;-82
2021/03/04 06:23:05;;;;;;;27.13;12.48;;;;;;;-143.98;100.00;68091.63;6306960;22;20031;-82
2021/03/04 06:25:36;;;;;;;25.38;11.35;;;;;;;-143.98;100.00;68091.63;6306206;22;20057;-83
2021/03/04 06:28:08;;;;;;;25.23;12.80;;;;;;;-143.98;100.00;68091.63;6307382;22;20100;-83
2021/03/04 06:30:40;;;;;;;26.52;13.05;;;;;;;-143.98;100.00;68091.63;6335101;22;20080;-83
2021/03/04 06:33:15;;;;;;;26.88;12.95;;;;;;;-143.98;100.00;68091.63;6312361;22;20031;-82
2021/03/04 06:36:11;;;;;;;23.40;10.98;;;;;;;-143.98;100.00;68091.63;6327717;22;20022;-84
2021/03/04 06:38:38;;;;;;;22.98;10.52;;;;;;;-143.98;100.00;68091.63;6354196;22;20177;-84
2021/03/04 06:41:17;;;;;;;19.80;9.55;;;;;;;-143.98;100.00;68091.63;6327013;22;20165;-85
2021/03/04 06:44:04;;;;;;;17.70;9.32;;;;;;;-143.98;100.00;68091.63;6344975;22;20027;-83
2021/03/04 06:46:44;;;;;;;17.38;9.00;;;;;;;-143.98;100.00;68091.63;6303869;22;20038;-84
2021/03/04 06:49:11;;;;;;;16.52;9.55;;;;;;;-143.98;100.00;68091.63;6324820;22;20046;-83
2021/03/04 06:51:44;;;;;;;14.75;9.05;;;;;;;-143.98;100.00;68091.63;6319001;22;20360;-83
2021/03/04 06:54:23;;;;;;;;;;;;;;;-143.98;100.00;68091.63;6314703;22;20035;-84
2021/03/04 06:56:52;;;;;;;17.30;8.95;;;;;;;-143.98;100.00;68091.63;6310284;22;19938;-83
2021/03/04 06:59:21;;;;;;;15.77;9.18;;;;;;;-143.98;100.00;68091.63;6311313;22;20029;-84
2021/03/04 07:01:51;;;;;;;16.73;8.95;;;;;;;-143.98;100.00;68091.63;6338694;22;20023;-84
2021/03/04 07:04:21;;;;;;;19.75;9.15;;;;;;;-143.98;100.00;68091.63;6313678;22;20207;-83
2021/03/04 07:06:47;;;;;;;16.45;8.65;;;;;;;-143.98;100.00;68091.63;6337566;22;20073;-84
2021/03/04 07:09:20;;;;;;;16.85;8.48;;;;;;;-143.98;100.00;68091.63;6313015;22;20046;-84
2021/03/04 07:11:49;;;;;;;17.52;9.15;;;;;;;-143.98;100.00;68091.63;6339073;22;20033;-84
2021/03/04 07:14:16;;;;;;;18.38;9.57;;;;;;;-143.98;100.00;68091.63;6311361;22;20031;-84
2021/03/04 07:16:45;;;;;;;15.90;9.05;;;;;;;-143.98;100.00;68091.63;6338788;22;20022;-84
2021/03/04 07:19:17;;;;;;;17.40;8.15;;;;;;;-143.98;100.00;68091.63;6336759;22;20023;-84
2021/03/04 07:21:46;;;;;;;17.35;9.00;;;;;;;-143.98;100.00;68091.63;6318998;22;20014;-84
2021/03/04 07:24:17;;;;;;;18.13;8.68;;;;;;;-143.98;100.00;68091.63;6328584;22;20184;-84
2021/03/04 07:26:44;;;;;;;14.38;8.60;;;;;;;-143.98;100.00;68091.63;6354279;22;20030;-85
2021/03/04 07:29:11;;;;;;;18.92;8.32;;;;;;;-143.98;100.00;68091.63;6344355;22;20026;-84
2021/03/04 07:31:42;;;;;;;16.38;8.00;;;;;;;-143.98;100.00;68091.63;6314332;22;20315;-84
2021/03/04 07:34:11;;;;;;;20.67;7.97;;;;;;;-143.98;100.00;68091.63;6323207;22;20014;-84
2021/03/04 07:36:44;;;;;;;14.50;7.25;;;;;;;-143.98;100.00;68091.63;6356973;22;20050;-83
2021/03/04 07:39:14;;;;;;;17.63;8.75;;;;;;;-143.98;100.00;68091.63;6318498;22;20030;-83
2021/03/04 07:42:01;;;;;;;15.30;7.20;;;;;;;-143.98;100.00;68091.63;6342082;22;20396;-84
2021/03/04 07:44:31;;;;;;;14.55;7.88;;;;;;;-143.98;100.00;68091.63;6340772;22;20042;-84
2021/03/04 07:47:06;;;;;;;16.90;7.80;;;;;;;-143.98;100.00;68091.63;6341789;22;20361;-83
2021/03/04 07:49:36;;;;;;;14.43;7.90;;;;;;;-143.98;100.00;68091.63;6316230;22;20424;-84
2021/03/04 07:52:13;;;;;;;15.30;7.65;;;;;;;-143.98;100.00;68091.63;6345060;22;20038;-83
2021/03/04 07:54:51;;;;;;;13.85;7.32;;;;;;;-143.98;100.00;68091.63;6339606;22;20022;-83
2021/03/04 07:57:19;;;;;;;14.50;7.10;;;;;;;-143.98;100.00;68091.63;6313391;22;20014;-84
2021/03/04 07:59:58;;;;;;;13.48;7.63;;;;;;;-143.98;100.00;68091.63;6337824;22;20397;-83
2021/03/04 08:02:38;;;;;;;16.40;7.15;;;;;;;-143.98;100.00;68091.63;6313734;22;20054;-85
2021/03/04 08:05:16;;;;;;;12.93;7.20;;;;;;;-143.98;100.00;68091.63;6312157;22;20023;-83
2021/03/04 08:07:50;;;;;;;14.88;7.53;;;;;;;-143.98;100.00;68091.63;6337267;22;20285;-84
2021/03/04 08:10:24;;;;;;;9.32;5.63;;;;;;;-143.98;100.00;68091.63;6315034;22;20359;-85
2021/03/04 08:13:00;;;;;;;12.93;6.28;;;;;;;-143.98;100.00;68091.63;6338455;22;20111;-83
2021/03/04 08:15:40;;;;;;;11.25;6.03;;;;;;;-143.98;100.00;68091.63;6340365;22;20026;-85
2021/03/04 08:18:24;;;;;;;11.73;6.65;;;;;;;-143.98;100.00;68091.63;6339144;22;20369;-85
2021/03/04 08:21:02;;;;;;;10.63;6.10;;;;;;;-143.98;100.00;68091.63;6337516;22;20031;-85
2021/03/04 08:23:45;;;;;;;13.20;5.60;;;;;;;-143.98;100.00;68091.63;6349896;22;20010;-83
2021/03/04 08:26:26;;;;;;;11.27;6.63;;;;;;;-143.98;100.00;68091.63;6320870;22;20101;-85
2021/03/04 08:29:04;;;;;;;12.25;5.00;;;;;;;-143.98;100.00;68091.63;6346173;22;20195;-83
2021/03/04 08:31:38;;;;;;;10.32;5.25;;;;;;;-143.98;100.00;68091.63;6344049;22;20068;-84
2021/03/04 08:34:07;;;;;;;10.50;5.90;;;;;;;-143.98;100.00;68091.63;6346440;22;20131;-84
2021/03/04 08:36:42;;;;;;;7.28;4.68;;;;;;;-143.98;100.00;68091.63;6372255;22;20623;-84
2021/03/04 08:39:29;;;;;;;9.38;5.22;;;;;;;-143.98;100.00;68091.63;6342563;22;20441;-83
2021/03/04 08:42:23;;;;;;;10.15;5.40;;;;;;;-143.98;100.00;68091.63;6343823;22;20074;-83
2021/03/04 08:44:52;;;;;;;16.52;5.22;;;;;;;-143.98;100.00;68091.63;6344638;22;20111;-85
2021/03/04 08:47:25;;;;;;;14.15;5.95;;;;;;;-143.98;100.00;68091.63;6321854;22;20026;-84
2021/03/04 08:49:53;;;;;;;9.57;5.00;;;;;;;-143.98;100.00;68091.63;6340641;22;20026;-84
2021/03/04 08:52:25;;;;;;;9.25;5.15;;;;;;;-143.98;100.00;68091.63;6318717;22;20237;-85
2021/03/04 08:55:03;;;;;;;13.30;5.50;;;;;;;-143.98;100.00;68091.63;6343057;22;20026;-84
2021/03/04 08:57:34;;;;;;;10.50;5.07;;;;;;;-143.98;100.00;68091.63;6313651;22;20026;-84
2021/03/04 09:00:22;;;;;;;16.30;4.90;;;;;;;-143.98;100.00;68091.63;6315609;22;20022;-84
2021/03/04 09:03:13;;;;;;;9.15;4.75;;;;;;;-143.98;100.00;68091.63;6350338;22;20449;-83
2021/03/04 09:05:41;;;;;;;6.85;4.35;;;;;;;-143.98;100.00;68091.63;6354688;22;20026;-83
2021/03/04 09:08:12;;;;;;;10.77;4.72;;;;;;;-143.98;100.00;68091.63;6346154;22;20019;-84
2021/03/04 09:10:46;;;;;;;8.80;4.65;;;;;;;-143.98;100.00;68091.63;6320279;22;20376;-85
2021/03/04 09:13:28;;;;;;;11.45;4.72;;;;;;;-143.98;100.00;68091.63;6346217;22;20022;-84
2021/03/04 09:16:04;;;;;;;7.85;4.22;;;;;;;-143.98;100.00;68091.63;6351409;22;20400;-84
2021/03/04 09:18:55;;;;;;;8.05;3.55;;;;;;;-143.98;100.00;68091.63;6319516;22;20372;-84
2021/03/04 09:21:23;;;;;;;9.38;4.35;;;;;;;-143.98;100.00;68091.63;6326055;22;20033;-83
2021/03/04 09:23:53;;;;;;;7.13;4.65;;;;;;;-143.98;100.00;68091.63;6305793;22;20027;-84
2021/03/04 09:26:22;;;;;;;9.05;4.97;;;;;;;-143.98;100.00;68091.63;6307920;22;20029;-84
2021/03/04 09:28:58;;;;;;;11.23;4.40;;;;;;;-143.98;100.00;68091.63;6282901;22;20023;-83
2021/03/04 09:31:30;;;;;;;14.93;4.82;;;;;;;-143.98;100.00;68091.63;6306394;22;20034;-83
2021/03/04 09:34:11;;;;;;;13.10;4.43;;;;;;;-143.98;100.00;68091.63;6278754;22;20286;-84
2021/03/04 09:36:40;;;;;;;8.90;4.90;;;;;;;-143.98;100.00;68091.63;6305575;22;20047;-84
2021/03/04 09:39:07;;;;;;;9.85;3.80;;;;;;;-143.98;100.00;68091.63;6308698;22;20043;-83
2021/03/04 09:41:55;;;;;;;11.35;4.50;;;;;;;-143.98;100.00;68091.63;6281252;22;20023;-83
2021/03/04 09:44:22;;;;;;;11.52;4.53;;;;;;;-143.98;100.00;68091.63;6279110;22;20291;-84
2021/03/04 09:46:59;;;;;;;9.30;4.80;;;;;;;-143.98;100.00;68091.63;6277554;22;20023;-84
2021/03/04 09:49:33;;;;;;;9.90;3.78;;;;;;;-143.98;100.00;68091.63;6303460;22;20455;-84
2021/03/04 09:52:05;;;;;;;6.63;3.67;;;;;;;-143.98;100.00;68091.63;6276230;22;20054;-84
2021/03/04 09:54:51;;;;;;;12.85;3.80;;;;;;;-143.98;100.00;68091.63;6282997;22;20476;-84
2021/03/04 09:57:24;;;;;;;6.40;3.83;;;;;;;-143.98;100.00;68091.63;6274262;22;20024;-83
2021/03/04 09:59:53;;;;;;;10.57;3.53;;;;;;;-143.98;100.00;68091.63;6275163;22;20093;-83
2021/03/04 10:02:26;;;;;;;12.18;3.83;;;;;;;-143.98;100.00;68091.63;6246039;22;20108;-83
2021/03/04 10:05:00;;;;;;;8.90;3.78;;;;;;;-143.98;100.00;68091.63;6248162;22;20394;-86
2021/03/04 10:07:30;;;;;;;8.30;3.60;;;;;;;-143.98;100.00;68091.63;6249540;22;20484;-84
2021/03/04 10:10:19;;;;;;;7.70;3.90;;;;;;;-143.98;100.00;68091.63;6248500;22;20027;-84
2021/03/04 10:13:03;;;;;;;13.20;3.72;;;;;;;-143.98;100.00;68091.63;6274852;22;20081;-86
2021/03/04 10:15:41;;;;;;;8.10;3.97;;;;;;;-143.98;100.00;68091.63;6253218;22;20077;-83
2021/03/04 10:18:15;;;;;;;7.22;3.42;;;;;;;-143.98;100.00;68091.63;6264821;22;20349;-84
2021/03/04 10:20:47;;;;;;;7.68;3.58;;;;;;;-143.98;100.00;68091.63;6260151;22;20038;-84
2021/03/04 10:23:19;;;;;;;6.15;3.10;;;;;;;-143.98;100.00;68091.63;6244723;22;20047;-84
2021/03/04 10:25:52;;;;;;;7.50;3.35;;;;;;;-143.98;100.00;68091.63;6258840;22;20315;-84
2021/03/04 10:28:24;;;;;;;8.82;3.22;;;;;;;-143.98;100.00;68091.63;6282890;22;20073;-86
2021/03/04 10:30:54;;;;;;;8.43;3.45;;;;;;;-143.98;100.00;68091.63;6260448;22;20027;-83
2021/03/04 10:33:38;;;;;;;9.13;3.88;;;;;;;-143.98;100.00;68091.63;6278535;22;20019;-84
2021/03/04 10:36:21;;;;;;;11.73;3.65;;;;;;;-143.98;100.00;68091.63;6258634;22;20023;-87
2021/03/04 10:39:07;;;;;;;9.68;3.78;;;;;;;-143.98;100.00;68091.63;6277002;22;20038;-85
2021/03/04 10:41:58;;;;;;;9.73;3.63;;;;;;;-143.98;100.00;68091.63;6291819;22;20046;-85
2021/03/04 10:44:31;;;;;;;10.77;4.40;;;;;;;-143.98;100.00;68091.63;6271828;22;20045;-86
2021/03/04 10:47:01;;;;;;;8.25;3.92;;;;;;;-143.98;100.00;68091.63;6263406;22;20024;-83
2021/03/04 10:49:36;;;;;;;10.50;3.97;;;;;;;-143.98;100.00;68091.63;6277752;22;20037;-84
2021/03/04 10:52:05;;;;;;;9.23;4.20;;;;;;;-143.98;100.00;68091.63;6304251;22;20023;-84
2021/03/04 10:54:37;;;;;;;9.45;4.20;;;;;;;-143.98;100.00;68091.63;6269885;22;20015;-87
2021/03/04 10:57:03;;;;;;;10.68;4.75;;;;;;;-143.98;100.00;68091.63;6293562;22;20035;-84
2021/03/04 10:59:30;;;;;;;14.55;4.60;;;;;;;-143.98;100.00;68091.63;6254146;22;20283;-83
2021/03/04 11:02:02;;;;;;;12.35;5.00;;;;;;;-143.98;100.00;68091.63;6250971;22;20183;-83
2021/03/04 11:04:29;;;;;;;9.90;4.57;;;;;;;-143.98;100.00;68091.63;6278229;22;20023;-84
2021/03/04 11:07:12;;;;;;;7.38;4.32;;;;;;;-143.98;100.00;68091.63;6256124;22;20055;-84
2021/03/04 11:10:02;;;;;;;9.85;4.72;;;;;;;-143.98;100.00;68091.63;6277904;22;20176;-85
2021/03/04 11:12:48;;;;;;;9.15;4.70;;;;;;;-143.98;100.00;68091.63;6276992;22;20023;-85
2021/03/04 11:15:24;;;;;;;10.77;4.75;;;;;;;-143.98;100.00;68091.63;6281839;22;20023;-85
2021/03/04 11:17:53;;;;;;;11.30;5.50;;;;;;;-143.98;100.00;68091.63;6254795;22;20234;-84
2021/03/04 11:20:31;;;;;;;12.52;4.85;;;;;;;-143.98;100.00;68091.63;6259069;22;20116;-83
2021/03/04 11:23:01;;;;;;;20.27;5.72;;;;;;;-143.98;100.00;68091.63;6290014;22;20023;-85
2021/03/04 11:25:30;;;;;;;10.63;5.93;;;;;;;-143.98;100.00;68091.63;6238255;23;20027;-84